sensor_id;sensor_type;location;lat;lon;timestamp;temperature;humidity
59041;DHT22;44825;53.200;6.448;2022-11-06T00:00:33;11.00;99.90
59041;DHT22;44825;53.200;6.448;2022-11-06T00:03:00;11.00;99.90
59041;DHT22;44825;53.200;6.448;2022-11-06T00:05:27;10.90;99.90
59041;DHT22;44825;53.200;6.448;2022-11-06T00:08:13;10.90;99.90
59041;DHT22;44825;53.200;6.448;2022-11-06T00:10:39;10.90;99.90
59041;DHT22;44825;53.200;6.448;2022-11-06T00:13:06;10.90;99.90
59041;DHT22;44825;53.200;6.448;2022-11-06T00:15:33;10.90;99.90
59041;DHT22;44825;53.200;6.448;2022-11-06T00:17:59;10.80;99.90
59041;DHT22;44825;53.200;6.448;2022-11-06T00:20:26;10.80;99.90
59041;DHT22;44825;53.200;6.448;2022-11-06T00:22:53;10.80;99.90
59041;DHT22;44825;53.200;6.448;2022-11-06T00:25:21;10.70;99.90
59041;DHT22;44825;53.200;6.448;2022-11-06T00:27:47;10.70;99.90
59041;DHT22;44825;53.200;6.448;2022-11-06T00:30:14;10.70;99.90
59041;DHT22;44825;53.200;6.448;2022-11-06T00:32:41;10.70;99.90
59041;DHT22;44825;53.200;6.448;2022-11-06T00:35:07;10.60;99.90
59041;DHT22;44825;53.200;6.448;2022-11-06T00:37:34;10.60;99.90
59041;DHT22;44825;53.200;6.448;2022-11-06T00:40:01;10.60;99.90
59041;DHT22;44825;53.200;6.448;2022-11-06T00:42:29;10.60;99.90
59041;DHT22;44825;53.200;6.448;2022-11-06T00:44:56;10.60;99.90
59041;DHT22;44825;53.200;6.448;2022-11-06T00:47:23;10.60;99.90
59041;DHT22;44825;53.200;6.448;2022-11-06T00:49:49;10.50;99.90
59041;DHT22;44825;53.200;6.448;2022-11-06T00:52:16;10.60;99.90
59041;DHT22;44825;53.200;6.448;2022-11-06T00:54:43;10.60;99.90
59041;DHT22;44825;53.200;6.448;2022-11-06T00:57:09;10.50;99.90
59041;DHT22;44825;53.200;6.448;2022-11-06T00:59:37;10.50;99.90
59041;DHT22;44825;53.200;6.448;2022-11-06T01:02:04;10.50;99.90
59041;DHT22;44825;53.200;6.448;2022-11-06T01:04:31;10.50;99.90
59041;DHT22;44825;53.200;6.448;2022-11-06T01:06:57;10.50;99.90
59041;DHT22;44825;53.200;6.448;2022-11-06T01:09:25;10.50;99.90
59041;DHT22;44825;53.200;6.448;2022-11-06T01:11:52;10.50;99.90
59041;DHT22;44825;53.200;6.448;2022-11-06T01:14:20;10.50;99.90
59041;DHT22;44825;53.200;6.448;2022-11-06T01:16:48;10.50;99.90
59041;DHT22;44825;53.200;6.448;2022-11-06T01:19:16;10.50;99.90
59041;DHT22;44825;53.200;6.448;2022-11-06T01:21:43;10.50;99.90
59041;DHT22;44825;53.200;6.448;2022-11-06T01:24:11;10.50;99.90
59041;DHT22;44825;53.200;6.448;2022-11-06T01:26:38;10.40;99.90
59041;DHT22;44825;53.200;6.448;2022-11-06T01:29:05;10.40;99.90
59041;DHT22;44825;53.200;6.448;2022-11-06T01:31:32;10.40;99.90
59041;DHT22;44825;53.200;6.448;2022-11-06T01:34:01;10.40;99.90
59041;DHT22;44825;53.200;6.448;2022-11-06T01:36:28;10.40;99.90
59041;DHT22;44825;53.200;6.448;2022-11-06T01:38:55;10.40;99.90
59041;DHT22;44825;53.200;6.448;2022-11-06T01:41:23;10.40;99.90
59041;DHT22;44825;53.200;6.448;2022-11-06T01:43:51;10.40;99.90
59041;DHT22;44825;53.200;6.448;2022-11-06T01:46:19;10.40;99.90
59041;DHT22;44825;53.200;6.448;2022-11-06T01:48:46;10.30;99.90
59041;DHT22;44825;53.200;6.448;2022-11-06T01:51:15;10.40;99.90
59041;DHT22;44825;53.200;6.448;2022-11-06T01:53:42;10.40;99.90
59041;DHT22;44825;53.200;6.448;2022-11-06T01:56:10;10.40;99.90
59041;DHT22;44825;53.200;6.448;2022-11-06T01:58:37;10.40;99.90
59041;DHT22;44825;53.200;6.448;2022-11-06T02:01:05;10.40;99.90
59041;DHT22;44825;53.200;6.448;2022-11-06T02:03:32;10.40;99.90
59041;DHT22;44825;53.200;6.448;2022-11-06T02:05:59;10.30;99.90
59041;DHT22;44825;53.200;6.448;2022-11-06T02:08:28;10.40;99.90
59041;DHT22;44825;53.200;6.448;2022-11-06T02:10:55;10.40;99.90
59041;DHT22;44825;53.200;6.448;2022-11-06T02:13:26;10.40;99.90
59041;DHT22;44825;53.200;6.448;2022-11-06T02:15:58;10.40;99.90
59041;DHT22;44825;53.200;6.448;2022-11-06T02:18:32;10.40;99.90
59041;DHT22;44825;53.200;6.448;2022-11-06T02:21:08;10.40;99.90
59041;DHT22;44825;53.200;6.448;2022-11-06T02:23:44;10.40;99.90
59041;DHT22;44825;53.200;6.448;2022-11-06T02:26:20;10.40;99.90
59041;DHT22;44825;53.200;6.448;2022-11-06T02:28:51;10.30;99.90
59041;DHT22;44825;53.200;6.448;2022-11-06T02:31:19;10.40;99.90
59041;DHT22;44825;53.200;6.448;2022-11-06T02:33:50;10.40;99.90
59041;DHT22;44825;53.200;6.448;2022-11-06T02:36:18;10.50;99.90
59041;DHT22;44825;53.200;6.448;2022-11-06T02:38:47;10.40;99.90
59041;DHT22;44825;53.200;6.448;2022-11-06T02:41:17;10.40;99.90
59041;DHT22;44825;53.200;6.448;2022-11-06T02:43:47;10.40;99.90
59041;DHT22;44825;53.200;6.448;2022-11-06T02:46:17;10.30;99.90
59041;DHT22;44825;53.200;6.448;2022-11-06T02:48:46;10.40;99.90
59041;DHT22;44825;53.200;6.448;2022-11-06T02:51:14;10.30;99.90
59041;DHT22;44825;53.200;6.448;2022-11-06T02:53:43;10.40;99.90
59041;DHT22;44825;53.200;6.448;2022-11-06T02:56:10;10.40;99.90
59041;DHT22;44825;53.200;6.448;2022-11-06T02:58:39;10.40;99.90
59041;DHT22;44825;53.200;6.448;2022-11-06T03:01:09;10.40;99.90
59041;DHT22;44825;53.200;6.448;2022-11-06T03:03:40;10.40;99.90
59041;DHT22;44825;53.200;6.448;2022-11-06T03:06:08;10.40;99.90
59041;DHT22;44825;53.200;6.448;2022-11-06T03:08:37;10.40;99.90
59041;DHT22;44825;53.200;6.448;2022-11-06T03:11:13;10.40;99.90
59041;DHT22;44825;53.200;6.448;2022-11-06T03:13:43;10.40;99.90
59041;DHT22;44825;53.200;6.448;2022-11-06T03:16:17;10.40;99.90
59041;DHT22;44825;53.200;6.448;2022-11-06T03:18:50;10.40;99.90
59041;DHT22;44825;53.200;6.448;2022-11-06T03:21:20;10.40;99.90
59041;DHT22;44825;53.200;6.448;2022-11-06T03:23:51;10.30;99.90
59041;DHT22;44825;53.200;6.448;2022-11-06T03:26:20;10.40;99.90
59041;DHT22;44825;53.200;6.448;2022-11-06T03:28:50;10.40;99.90
59041;DHT22;44825;53.200;6.448;2022-11-06T03:31:18;10.40;99.90
59041;DHT22;44825;53.200;6.448;2022-11-06T03:33:51;10.40;99.90
59041;DHT22;44825;53.200;6.448;2022-11-06T03:36:18;10.40;99.90
59041;DHT22;44825;53.200;6.448;2022-11-06T03:38:47;10.40;99.90
59041;DHT22;44825;53.200;6.448;2022-11-06T03:41:17;10.40;99.90
59041;DHT22;44825;53.200;6.448;2022-11-06T03:43:46;10.40;99.90
59041;DHT22;44825;53.200;6.448;2022-11-06T03:46:14;10.40;99.90
59041;DHT22;44825;53.200;6.448;2022-11-06T03:48:44;10.40;99.90
59041;DHT22;44825;53.200;6.448;2022-11-06T03:51:15;10.40;99.90
59041;DHT22;44825;53.200;6.448;2022-11-06T03:53:44;10.50;99.90
59041;DHT22;44825;53.200;6.448;2022-11-06T03:56:12;10.50;99.90
59041;DHT22;44825;53.200;6.448;2022-11-06T03:58:42;10.50;99.90
59041;DHT22;44825;53.200;6.448;2022-11-06T04:01:11;10.50;99.90
59041;DHT22;44825;53.200;6.448;2022-11-06T04:03:40;10.50;99.90
59041;DHT22;44825;53.200;6.448;2022-11-06T04:06:09;10.50;99.90
59041;DHT22;44825;53.200;6.448;2022-11-06T04:08:38;10.50;99.90
59041;DHT22;44825;53.200;6.448;2022-11-06T04:11:24;10.50;99.90
59041;DHT22;44825;53.200;6.448;2022-11-06T04:14:09;10.50;99.90
59041;DHT22;44825;53.200;6.448;2022-11-06T04:16:37;10.50;99.90
59041;DHT22;44825;53.200;6.448;2022-11-06T04:19:05;10.50;99.90
59041;DHT22;44825;53.200;6.448;2022-11-06T04:21:39;10.50;99.90
59041;DHT22;44825;53.200;6.448;2022-11-06T04:24:12;10.50;99.90
59041;DHT22;44825;53.200;6.448;2022-11-06T04:27:06;10.50;99.90
59041;DHT22;44825;53.200;6.448;2022-11-06T04:29:39;10.50;99.90
59041;DHT22;44825;53.200;6.448;2022-11-06T04:32:09;10.60;99.90
59041;DHT22;44825;53.200;6.448;2022-11-06T04:34:39;10.50;99.90
59041;DHT22;44825;53.200;6.448;2022-11-06T04:37:09;10.50;99.90
59041;DHT22;44825;53.200;6.448;2022-11-06T04:39:42;10.50;99.90
59041;DHT22;44825;53.200;6.448;2022-11-06T04:42:10;10.60;99.90
59041;DHT22;44825;53.200;6.448;2022-11-06T04:44:38;10.60;99.90
59041;DHT22;44825;53.200;6.448;2022-11-06T04:47:07;10.60;99.90
59041;DHT22;44825;53.200;6.448;2022-11-06T04:49:36;10.60;99.90
59041;DHT22;44825;53.200;6.448;2022-11-06T04:52:05;10.60;99.90
59041;DHT22;44825;53.200;6.448;2022-11-06T04:54:32;10.60;99.90
59041;DHT22;44825;53.200;6.448;2022-11-06T04:57:01;10.60;99.90
59041;DHT22;44825;53.200;6.448;2022-11-06T04:59:27;10.60;99.90
59041;DHT22;44825;53.200;6.448;2022-11-06T05:01:56;10.60;99.90
59041;DHT22;44825;53.200;6.448;2022-11-06T05:04:22;10.60;99.90
59041;DHT22;44825;53.200;6.448;2022-11-06T05:06:49;10.60;99.90
59041;DHT22;44825;53.200;6.448;2022-11-06T05:09:16;10.60;99.90
59041;DHT22;44825;53.200;6.448;2022-11-06T05:11:42;10.50;99.90
59041;DHT22;44825;53.200;6.448;2022-11-06T05:14:10;10.60;99.90
59041;DHT22;44825;53.200;6.448;2022-11-06T05:16:37;10.60;99.90
59041;DHT22;44825;53.200;6.448;2022-11-06T05:19:04;10.60;99.90
59041;DHT22;44825;53.200;6.448;2022-11-06T05:21:30;10.60;99.90
59041;DHT22;44825;53.200;6.448;2022-11-06T05:24:15;10.60;99.90
59041;DHT22;44825;53.200;6.448;2022-11-06T05:26:41;10.60;99.90
59041;DHT22;44825;53.200;6.448;2022-11-06T05:29:08;10.60;99.90
59041;DHT22;44825;53.200;6.448;2022-11-06T05:31:37;10.60;99.90
59041;DHT22;44825;53.200;6.448;2022-11-06T05:34:04;10.50;99.90
59041;DHT22;44825;53.200;6.448;2022-11-06T05:36:30;10.50;99.90
59041;DHT22;44825;53.200;6.448;2022-11-06T05:38:57;10.60;99.90
59041;DHT22;44825;53.200;6.448;2022-11-06T05:41:24;10.60;99.90
59041;DHT22;44825;53.200;6.448;2022-11-06T05:43:50;10.70;99.90
59041;DHT22;44825;53.200;6.448;2022-11-06T05:46:17;10.60;99.90
59041;DHT22;44825;53.200;6.448;2022-11-06T05:48:45;10.50;99.90
59041;DHT22;44825;53.200;6.448;2022-11-06T05:51:12;10.60;99.90
59041;DHT22;44825;53.200;6.448;2022-11-06T05:53:38;10.60;99.90
59041;DHT22;44825;53.200;6.448;2022-11-06T05:56:05;10.50;99.90
59041;DHT22;44825;53.200;6.448;2022-11-06T05:58:32;10.60;99.90
59041;DHT22;44825;53.200;6.448;2022-11-06T06:00:59;10.60;99.90
59041;DHT22;44825;53.200;6.448;2022-11-06T06:03:26;10.50;99.90
59041;DHT22;44825;53.200;6.448;2022-11-06T06:05:54;10.60;99.90
59041;DHT22;44825;53.200;6.448;2022-11-06T06:08:21;10.60;99.90
59041;DHT22;44825;53.200;6.448;2022-11-06T06:10:47;10.60;99.90
59041;DHT22;44825;53.200;6.448;2022-11-06T06:13:14;10.60;99.90
59041;DHT22;44825;53.200;6.448;2022-11-06T06:15:41;10.60;99.90
59041;DHT22;44825;53.200;6.448;2022-11-06T06:18:08;10.60;99.90
59041;DHT22;44825;53.200;6.448;2022-11-06T06:20:35;10.50;99.90
59041;DHT22;44825;53.200;6.448;2022-11-06T06:23:03;10.50;99.90
59041;DHT22;44825;53.200;6.448;2022-11-06T06:25:30;10.50;99.90
59041;DHT22;44825;53.200;6.448;2022-11-06T06:27:57;10.50;99.90
59041;DHT22;44825;53.200;6.448;2022-11-06T06:30:24;10.50;99.90
59041;DHT22;44825;53.200;6.448;2022-11-06T06:32:51;10.50;99.90
59041;DHT22;44825;53.200;6.448;2022-11-06T06:35:17;10.50;99.90
59041;DHT22;44825;53.200;6.448;2022-11-06T06:37:49;10.50;99.90
59041;DHT22;44825;53.200;6.448;2022-11-06T06:40:17;10.50;99.90
59041;DHT22;44825;53.200;6.448;2022-11-06T06:42:43;10.50;99.90
59041;DHT22;44825;53.200;6.448;2022-11-06T06:45:10;10.50;99.90
59041;DHT22;44825;53.200;6.448;2022-11-06T06:47:37;10.50;99.90
59041;DHT22;44825;53.200;6.448;2022-11-06T06:50:04;10.50;99.90
59041;DHT22;44825;53.200;6.448;2022-11-06T06:52:30;10.50;99.90
59041;DHT22;44825;53.200;6.448;2022-11-06T06:54:57;10.50;99.90
59041;DHT22;44825;53.200;6.448;2022-11-06T06:57:25;10.50;99.90
59041;DHT22;44825;53.200;6.448;2022-11-06T06:59:52;10.50;99.90
59041;DHT22;44825;53.200;6.448;2022-11-06T07:02:19;10.50;99.90
59041;DHT22;44825;53.200;6.448;2022-11-06T07:04:45;10.50;99.90
59041;DHT22;44825;53.200;6.448;2022-11-06T07:07:12;10.50;99.90
59041;DHT22;44825;53.200;6.448;2022-11-06T07:09:38;10.50;99.90
59041;DHT22;44825;53.200;6.448;2022-11-06T07:12:05;10.50;99.90
59041;DHT22;44825;53.200;6.448;2022-11-06T07:14:33;10.50;99.90
59041;DHT22;44825;53.200;6.448;2022-11-06T07:17:00;10.60;99.90
59041;DHT22;44825;53.200;6.448;2022-11-06T07:19:27;10.60;99.90
59041;DHT22;44825;53.200;6.448;2022-11-06T07:21:53;10.60;99.90
59041;DHT22;44825;53.200;6.448;2022-11-06T07:24:20;10.60;99.90
59041;DHT22;44825;53.200;6.448;2022-11-06T07:26:47;10.60;99.90
59041;DHT22;44825;53.200;6.448;2022-11-06T07:29:14;10.60;99.90
59041;DHT22;44825;53.200;6.448;2022-11-06T07:31:42;10.60;99.90
59041;DHT22;44825;53.200;6.448;2022-11-06T07:34:09;10.60;99.90
59041;DHT22;44825;53.200;6.448;2022-11-06T07:36:36;10.60;99.90
59041;DHT22;44825;53.200;6.448;2022-11-06T07:39:06;10.60;99.90
59041;DHT22;44825;53.200;6.448;2022-11-06T07:41:34;10.60;99.90
59041;DHT22;44825;53.200;6.448;2022-11-06T07:44:02;10.60;99.90
59041;DHT22;44825;53.200;6.448;2022-11-06T07:46:28;10.60;99.90
59041;DHT22;44825;53.200;6.448;2022-11-06T07:49:00;10.70;99.90
59041;DHT22;44825;53.200;6.448;2022-11-06T07:51:27;10.70;99.90
59041;DHT22;44825;53.200;6.448;2022-11-06T07:53:53;10.70;99.90
59041;DHT22;44825;53.200;6.448;2022-11-06T07:56:20;10.60;99.90
59041;DHT22;44825;53.200;6.448;2022-11-06T07:58:46;10.60;99.90
59041;DHT22;44825;53.200;6.448;2022-11-06T08:01:14;10.70;99.90
59041;DHT22;44825;53.200;6.448;2022-11-06T08:03:41;10.70;99.90
59041;DHT22;44825;53.200;6.448;2022-11-06T08:06:09;10.60;99.90
59041;DHT22;44825;53.200;6.448;2022-11-06T08:08:36;10.70;99.90
59041;DHT22;44825;53.200;6.448;2022-11-06T08:11:03;10.70;99.90
59041;DHT22;44825;53.200;6.448;2022-11-06T08:13:30;10.70;99.90
59041;DHT22;44825;53.200;6.448;2022-11-06T08:15:58;10.70;99.90
59041;DHT22;44825;53.200;6.448;2022-11-06T08:18:24;10.70;99.90
59041;DHT22;44825;53.200;6.448;2022-11-06T08:20:51;10.70;99.90
59041;DHT22;44825;53.200;6.448;2022-11-06T08:23:20;10.70;99.90
59041;DHT22;44825;53.200;6.448;2022-11-06T08:25:47;10.70;99.90
59041;DHT22;44825;53.200;6.448;2022-11-06T08:28:13;10.80;99.90
59041;DHT22;44825;53.200;6.448;2022-11-06T08:30:40;10.80;99.90
59041;DHT22;44825;53.200;6.448;2022-11-06T08:33:07;10.80;99.90
59041;DHT22;44825;53.200;6.448;2022-11-06T08:35:34;10.80;99.90
59041;DHT22;44825;53.200;6.448;2022-11-06T08:38:01;10.80;99.90
59041;DHT22;44825;53.200;6.448;2022-11-06T08:40:29;10.80;99.90
59041;DHT22;44825;53.200;6.448;2022-11-06T08:42:59;10.80;99.90
59041;DHT22;44825;53.200;6.448;2022-11-06T08:45:26;10.90;99.90
59041;DHT22;44825;53.200;6.448;2022-11-06T08:47:53;10.80;99.90
59041;DHT22;44825;53.200;6.448;2022-11-06T08:50:20;10.90;99.90
59041;DHT22;44825;53.200;6.448;2022-11-06T08:52:46;10.90;99.90
59041;DHT22;44825;53.200;6.448;2022-11-06T08:55:13;10.80;99.90
59041;DHT22;44825;53.200;6.448;2022-11-06T08:57:41;10.90;99.90
59041;DHT22;44825;53.200;6.448;2022-11-06T09:00:08;10.90;99.90
59041;DHT22;44825;53.200;6.448;2022-11-06T09:02:36;10.90;99.90
59041;DHT22;44825;53.200;6.448;2022-11-06T09:05:03;11.00;99.90
59041;DHT22;44825;53.200;6.448;2022-11-06T09:07:29;11.00;99.90
59041;DHT22;44825;53.200;6.448;2022-11-06T09:09:56;11.10;99.90
59041;DHT22;44825;53.200;6.448;2022-11-06T09:12:23;11.10;99.90
59041;DHT22;44825;53.200;6.448;2022-11-06T09:14:51;11.10;99.90
59041;DHT22;44825;53.200;6.448;2022-11-06T09:17:18;11.20;99.90
59041;DHT22;44825;53.200;6.448;2022-11-06T09:19:48;11.20;99.90
59041;DHT22;44825;53.200;6.448;2022-11-06T09:22:14;11.20;99.90
59041;DHT22;44825;53.200;6.448;2022-11-06T09:24:41;11.20;99.90
59041;DHT22;44825;53.200;6.448;2022-11-06T09:27:07;11.30;99.90
59041;DHT22;44825;53.200;6.448;2022-11-06T09:29:34;11.30;99.90
59041;DHT22;44825;53.200;6.448;2022-11-06T09:32:06;11.30;99.90
59041;DHT22;44825;53.200;6.448;2022-11-06T09:34:33;11.30;99.90
59041;DHT22;44825;53.200;6.448;2022-11-06T09:37:00;11.30;99.90
59041;DHT22;44825;53.200;6.448;2022-11-06T09:39:27;11.30;99.90
59041;DHT22;44825;53.200;6.448;2022-11-06T09:41:54;11.30;99.90
59041;DHT22;44825;53.200;6.448;2022-11-06T09:44:27;11.30;99.90
59041;DHT22;44825;53.200;6.448;2022-11-06T09:46:55;11.30;99.90
59041;DHT22;44825;53.200;6.448;2022-11-06T09:49:26;11.30;99.90
59041;DHT22;44825;53.200;6.448;2022-11-06T09:51:57;11.40;99.90
59041;DHT22;44825;53.200;6.448;2022-11-06T09:54:26;11.40;99.90
59041;DHT22;44825;53.200;6.448;2022-11-06T09:56:54;11.40;99.90
59041;DHT22;44825;53.200;6.448;2022-11-06T09:59:23;11.40;99.90
59041;DHT22;44825;53.200;6.448;2022-11-06T10:01:51;11.50;99.90
59041;DHT22;44825;53.200;6.448;2022-11-06T10:04:21;11.50;99.90
59041;DHT22;44825;53.200;6.448;2022-11-06T10:06:52;11.50;99.90
59041;DHT22;44825;53.200;6.448;2022-11-06T10:09:26;11.50;99.90
59041;DHT22;44825;53.200;6.448;2022-11-06T10:11:57;11.50;99.90
59041;DHT22;44825;53.200;6.448;2022-11-06T10:14:31;11.50;99.90
59041;DHT22;44825;53.200;6.448;2022-11-06T10:17:00;11.60;99.90
59041;DHT22;44825;53.200;6.448;2022-11-06T10:19:34;11.60;99.90
59041;DHT22;44825;53.200;6.448;2022-11-06T10:22:07;11.60;99.90
59041;DHT22;44825;53.200;6.448;2022-11-06T10:24:36;11.60;99.90
59041;DHT22;44825;53.200;6.448;2022-11-06T10:27:08;11.70;99.90
59041;DHT22;44825;53.200;6.448;2022-11-06T10:29:51;11.70;99.90
59041;DHT22;44825;53.200;6.448;2022-11-06T10:32:36;11.70;99.90
59041;DHT22;44825;53.200;6.448;2022-11-06T10:35:12;11.70;99.90
59041;DHT22;44825;53.200;6.448;2022-11-06T10:37:42;11.80;99.90
59041;DHT22;44825;53.200;6.448;2022-11-06T10:40:13;11.80;99.90
59041;DHT22;44825;53.200;6.448;2022-11-06T10:42:42;11.80;99.90
59041;DHT22;44825;53.200;6.448;2022-11-06T10:45:10;11.80;99.90
59041;DHT22;44825;53.200;6.448;2022-11-06T10:47:39;11.90;99.90
59041;DHT22;44825;53.200;6.448;2022-11-06T10:50:10;12.00;99.90
59041;DHT22;44825;53.200;6.448;2022-11-06T10:52:39;12.00;99.90
59041;DHT22;44825;53.200;6.448;2022-11-06T10:55:19;12.00;99.90
59041;DHT22;44825;53.200;6.448;2022-11-06T10:57:51;12.00;99.90
59041;DHT22;44825;53.200;6.448;2022-11-06T11:00:21;12.00;99.90
59041;DHT22;44825;53.200;6.448;2022-11-06T11:02:50;12.00;99.90
59041;DHT22;44825;53.200;6.448;2022-11-06T11:05:18;12.00;99.90
59041;DHT22;44825;53.200;6.448;2022-11-06T11:07:46;12.10;99.90
59041;DHT22;44825;53.200;6.448;2022-11-06T11:10:29;12.10;99.90
59041;DHT22;44825;53.200;6.448;2022-11-06T11:12:58;12.10;99.90
59041;DHT22;44825;53.200;6.448;2022-11-06T11:15:26;12.10;99.90
59041;DHT22;44825;53.200;6.448;2022-11-06T11:18:06;12.10;99.90
59041;DHT22;44825;53.200;6.448;2022-11-06T11:20:34;12.10;99.90
59041;DHT22;44825;53.200;6.448;2022-11-06T11:23:12;12.00;99.90
59041;DHT22;44825;53.200;6.448;2022-11-06T11:25:43;12.00;99.90
59041;DHT22;44825;53.200;6.448;2022-11-06T11:28:22;12.00;99.90
59041;DHT22;44825;53.200;6.448;2022-11-06T11:30:52;12.00;99.90
59041;DHT22;44825;53.200;6.448;2022-11-06T11:33:19;12.00;99.90
59041;DHT22;44825;53.200;6.448;2022-11-06T11:35:47;12.00;99.90
59041;DHT22;44825;53.200;6.448;2022-11-06T11:38:16;11.90;99.90
59041;DHT22;44825;53.200;6.448;2022-11-06T11:40:44;11.80;99.90
59041;DHT22;44825;53.200;6.448;2022-11-06T11:43:16;11.80;99.90
59041;DHT22;44825;53.200;6.448;2022-11-06T11:45:50;11.80;99.90
59041;DHT22;44825;53.200;6.448;2022-11-06T12:06:51;11.80;99.90
59041;DHT22;44825;53.200;6.448;2022-11-06T12:15:43;11.90;99.90
